Terminal Aerodrome Forecast
Issued by NWS Knoxville/Tri Cities, TN

Home | Current Version | Previous Version | Text Only | Print | Product List | Glossary On
Versions: 1 2 3 4 5 6 7 8 9 10 11 12 13 14 15 16 17 18 19 20 21 22 23 24 25 26 27 28 29 30 31 32 33 34 35 36 37 38 39 40 41 42 43 44
000
FTUS44 KMRX 032106 AAA
TAFCHA
TAF AMD
KCHA 032106Z 0321/0418 24014KT P6SM BKN030
     FM040000 20006KT P6SM VCTS BKN035CB OVC100
     FM040500 19005KT 5SM -SHRA BR VCTS SCT010 BKN020CB
     FM041600 22007KT P6SM VCTS SCT020CB BKN035=

USA.gov is the U.S. government's official web portal to all federal, state and local government web resources and services.